sensor_id;sensor_type;location;lat;lon;timestamp;pressure;altitude;pressure_sealevel;temperature;humidity
68712;BME280;55690;51.566;19.198;2023-01-31T00:01:28;100660.62;;;5.94;94.81
68712;BME280;55690;51.566;19.198;2023-01-31T00:05:33;100651.21;;;6.17;94.19
68712;BME280;55690;51.566;19.198;2023-01-31T00:09:39;100655.64;;;6.33;93.67
68712;BME280;55690;51.566;19.198;2023-01-31T00:13:46;100648.88;;;6.56;92.35
68712;BME280;55690;51.566;19.198;2023-01-31T00:17:51;100660.56;;;5.62;92.62
68712;BME280;55690;51.566;19.198;2023-01-31T00:21:57;100684.60;;;4.10;100.00
68712;BME280;55690;51.566;19.198;2023-01-31T00:26:14;100678.35;;;4.28;100.00
68712;BME280;55690;51.566;19.198;2023-01-31T00:30:16;100689.10;;;3.91;100.00
68712;BME280;55690;51.566;19.198;2023-01-31T00:34:18;100701.88;;;4.23;100.00
68712;BME280;55690;51.566;19.198;2023-01-31T00:38:22;100702.19;;;4.17;100.00
68712;BME280;55690;51.566;19.198;2023-01-31T00:42:28;100700.66;;;4.48;100.00
68712;BME280;55690;51.566;19.198;2023-01-31T00:46:35;100718.39;;;4.52;100.00
68712;BME280;55690;51.566;19.198;2023-01-31T00:50:41;100712.41;;;4.81;100.00
68712;BME280;55690;51.566;19.198;2023-01-31T00:54:47;100720.34;;;4.31;100.00
68712;BME280;55690;51.566;19.198;2023-01-31T00:58:53;100726.47;;;4.52;100.00
68712;BME280;55690;51.566;19.198;2023-01-31T01:02:59;100730.61;;;4.40;100.00
68712;BME280;55690;51.566;19.198;2023-01-31T01:07:05;100741.95;;;4.47;100.00
68712;BME280;55690;51.566;19.198;2023-01-31T01:11:18;100739.73;;;4.19;100.00
68712;BME280;55690;51.566;19.198;2023-01-31T01:15:20;100742.20;;;4.95;100.00
68712;BME280;55690;51.566;19.198;2023-01-31T01:19:24;100750.98;;;4.99;100.00
68712;BME280;55690;51.566;19.198;2023-01-31T01:23:30;100751.44;;;4.90;99.76
68712;BME280;55690;51.566;19.198;2023-01-31T01:27:36;100743.98;;;4.78;100.00
68712;BME280;55690;51.566;19.198;2023-01-31T01:31:43;100752.02;;;5.14;99.72
68712;BME280;55690;51.566;19.198;2023-01-31T01:35:49;100757.13;;;4.84;100.00
68712;BME280;55690;51.566;19.198;2023-01-31T01:39:55;100753.77;;;5.15;99.18
68712;BME280;55690;51.566;19.198;2023-01-31T01:48:17;100765.03;;;4.70;100.00
68712;BME280;55690;51.566;19.198;2023-01-31T01:52:19;100770.20;;;4.91;99.89
68712;BME280;55690;51.566;19.198;2023-01-31T01:56:28;100778.73;;;4.82;99.83
68712;BME280;55690;51.566;19.198;2023-01-31T02:00:34;100777.55;;;4.88;99.17
68712;BME280;55690;51.566;19.198;2023-01-31T02:04:39;100787.40;;;5.06;99.66
68712;BME280;55690;51.566;19.198;2023-01-31T02:08:43;100791.75;;;5.26;98.21
68712;BME280;55690;51.566;19.198;2023-01-31T02:12:46;100780.82;;;5.29;97.21
68712;BME280;55690;51.566;19.198;2023-01-31T02:16:51;100801.33;;;5.31;97.12
68712;BME280;55690;51.566;19.198;2023-01-31T02:25:42;100805.77;;;4.79;96.87
68712;BME280;55690;51.566;19.198;2023-01-31T02:29:43;100810.28;;;4.79;98.81
68712;BME280;55690;51.566;19.198;2023-01-31T02:33:54;100820.77;;;4.10;100.00
68712;BME280;55690;51.566;19.198;2023-01-31T02:42:27;100824.27;;;3.73;100.00
68712;BME280;55690;51.566;19.198;2023-01-31T02:50:52;100840.59;;;3.88;100.00
68712;BME280;55690;51.566;19.198;2023-01-31T02:55:20;100845.48;;;3.79;100.00
68712;BME280;55690;51.566;19.198;2023-01-31T02:59:24;100849.34;;;4.12;100.00
68712;BME280;55690;51.566;19.198;2023-01-31T03:03:34;100860.19;;;4.29;100.00
68712;BME280;55690;51.566;19.198;2023-01-31T03:07:38;100862.73;;;4.51;99.09
68712;BME280;55690;51.566;19.198;2023-01-31T03:11:49;100877.99;;;4.32;98.91
68712;BME280;55690;51.566;19.198;2023-01-31T03:16:04;100893.27;;;4.11;100.00
68712;BME280;55690;51.566;19.198;2023-01-31T03:24:30;100915.78;;;4.09;99.78
68712;BME280;55690;51.566;19.198;2023-01-31T03:28:33;100895.00;;;4.32;98.32
68712;BME280;55690;51.566;19.198;2023-01-31T03:32:46;100920.80;;;4.55;97.07
68712;BME280;55690;51.566;19.198;2023-01-31T03:45:22;100944.69;;;4.43;97.05
68712;BME280;55690;51.566;19.198;2023-01-31T03:49:26;100939.02;;;4.30;96.35
68712;BME280;55690;51.566;19.198;2023-01-31T03:53:39;100947.78;;;4.33;97.38
68712;BME280;55690;51.566;19.198;2023-01-31T03:57:44;100949.33;;;4.39;97.58
68712;BME280;55690;51.566;19.198;2023-01-31T04:01:48;100963.30;;;4.47;96.65
68712;BME280;55690;51.566;19.198;2023-01-31T04:05:52;100978.02;;;4.59;95.69
68712;BME280;55690;51.566;19.198;2023-01-31T04:09:54;100967.19;;;4.60;95.12
68712;BME280;55690;51.566;19.198;2023-01-31T04:13:56;100981.38;;;4.83;94.56
68712;BME280;55690;51.566;19.198;2023-01-31T04:17:57;100981.38;;;4.64;93.75
68712;BME280;55690;51.566;19.198;2023-01-31T04:21:59;100995.13;;;4.17;94.80
68712;BME280;55690;51.566;19.198;2023-01-31T04:26:01;101008.15;;;3.64;97.51
68712;BME280;55690;51.566;19.198;2023-01-31T04:30:03;101013.46;;;3.65;97.78
68712;BME280;55690;51.566;19.198;2023-01-31T04:34:04;101016.56;;;4.19;95.97
68712;BME280;55690;51.566;19.198;2023-01-31T04:38:06;101027.76;;;4.08;95.63
68712;BME280;55690;51.566;19.198;2023-01-31T04:42:08;101018.88;;;3.86;95.65
68712;BME280;55690;51.566;19.198;2023-01-31T04:46:10;101034.80;;;3.68;96.60
68712;BME280;55690;51.566;19.198;2023-01-31T04:50:11;101032.63;;;3.78;96.06
68712;BME280;55690;51.566;19.198;2023-01-31T04:54:12;101042.52;;;3.98;95.20
68712;BME280;55690;51.566;19.198;2023-01-31T04:58:14;101039.29;;;4.32;93.75
68712;BME280;55690;51.566;19.198;2023-01-31T05:02:16;101052.62;;;3.71;94.49
68712;BME280;55690;51.566;19.198;2023-01-31T05:06:17;101059.57;;;4.19;92.87
68712;BME280;55690;51.566;19.198;2023-01-31T05:10:19;101060.87;;;3.88;94.07
68712;BME280;55690;51.566;19.198;2023-01-31T05:14:21;101062.20;;;3.98;93.64
68712;BME280;55690;51.566;19.198;2023-01-31T05:18:23;101068.97;;;3.43;95.05
68712;BME280;55690;51.566;19.198;2023-01-31T05:22:25;101088.64;;;3.65;95.71
68712;BME280;55690;51.566;19.198;2023-01-31T05:26:27;101088.81;;;3.39;94.44
68712;BME280;55690;51.566;19.198;2023-01-31T05:30:29;101097.70;;;3.63;95.04
68712;BME280;55690;51.566;19.198;2023-01-31T05:34:31;101110.07;;;3.67;94.06
68712;BME280;55690;51.566;19.198;2023-01-31T05:38:33;101125.77;;;3.54;94.48
68712;BME280;55690;51.566;19.198;2023-01-31T05:42:35;101123.15;;;3.53;94.48
68712;BME280;55690;51.566;19.198;2023-01-31T05:46:37;101132.26;;;3.49;94.42
68712;BME280;55690;51.566;19.198;2023-01-31T05:50:39;101145.04;;;3.65;94.11
68712;BME280;55690;51.566;19.198;2023-01-31T05:54:40;101151.54;;;3.37;94.10
68712;BME280;55690;51.566;19.198;2023-01-31T05:58:42;101155.77;;;3.65;94.52
68712;BME280;55690;51.566;19.198;2023-01-31T06:02:43;101169.26;;;3.87;93.61
68712;BME280;55690;51.566;19.198;2023-01-31T06:06:45;101169.07;;;4.14;93.50
68712;BME280;55690;51.566;19.198;2023-01-31T06:10:46;101178.25;;;4.08;93.16
68712;BME280;55690;51.566;19.198;2023-01-31T06:14:49;101178.31;;;3.61;93.79
68712;BME280;55690;51.566;19.198;2023-01-31T06:18:55;101198.72;;;3.19;95.12
68712;BME280;55690;51.566;19.198;2023-01-31T06:23:01;101208.73;;;3.39;93.92
68712;BME280;55690;51.566;19.198;2023-01-31T06:27:08;101216.62;;;3.43;94.25
68712;BME280;55690;51.566;19.198;2023-01-31T06:31:14;101226.88;;;3.32;93.91
68712;BME280;55690;51.566;19.198;2023-01-31T06:35:20;101219.63;;;3.34;94.55
68712;BME280;55690;51.566;19.198;2023-01-31T06:39:26;101227.24;;;3.46;94.29
68712;BME280;55690;51.566;19.198;2023-01-31T06:43:33;101228.61;;;3.33;94.13
68712;BME280;55690;51.566;19.198;2023-01-31T06:47:38;101239.79;;;3.21;95.06
68712;BME280;55690;51.566;19.198;2023-01-31T06:51:45;101234.93;;;3.55;94.15
68712;BME280;55690;51.566;19.198;2023-01-31T06:55:51;101233.13;;;3.56;93.53
68712;BME280;55690;51.566;19.198;2023-01-31T06:59:57;101238.75;;;3.73;92.59
68712;BME280;55690;51.566;19.198;2023-01-31T07:04:03;101228.09;;;3.47;92.93
68712;BME280;55690;51.566;19.198;2023-01-31T07:08:09;101228.40;;;3.39;93.94
68712;BME280;55690;51.566;19.198;2023-01-31T07:12:16;101232.67;;;3.45;92.83
68712;BME280;55690;51.566;19.198;2023-01-31T07:16:22;101244.18;;;3.72;92.55
68712;BME280;55690;51.566;19.198;2023-01-31T07:20:28;101244.30;;;3.68;92.35
68712;BME280;55690;51.566;19.198;2023-01-31T07:24:34;101244.74;;;3.56;91.70
68712;BME280;55690;51.566;19.198;2023-01-31T07:28:41;101251.58;;;3.65;91.90
68712;BME280;55690;51.566;19.198;2023-01-31T07:32:47;101261.56;;;3.61;92.18
68712;BME280;55690;51.566;19.198;2023-01-31T07:36:53;101266.55;;;3.47;91.92
68712;BME280;55690;51.566;19.198;2023-01-31T07:41:00;101267.48;;;3.71;91.73
68712;BME280;55690;51.566;19.198;2023-01-31T07:45:07;101281.19;;;3.63;92.28
68712;BME280;55690;51.566;19.198;2023-01-31T07:49:12;101277.95;;;3.79;91.83
68712;BME280;55690;51.566;19.198;2023-01-31T07:53:18;101286.76;;;3.82;91.12
68712;BME280;55690;51.566;19.198;2023-01-31T07:57:24;101282.10;;;3.87;90.62
68712;BME280;55690;51.566;19.198;2023-01-31T08:01:30;101295.58;;;3.86;90.77
68712;BME280;55690;51.566;19.198;2023-01-31T08:05:46;101305.73;;;3.78;90.57
68712;BME280;55690;51.566;19.198;2023-01-31T08:09:48;101311.22;;;3.98;90.49
68712;BME280;55690;51.566;19.198;2023-01-31T08:13:50;101312.69;;;3.83;90.94
68712;BME280;55690;51.566;19.198;2023-01-31T08:17:55;101322.50;;;3.84;91.09
68712;BME280;55690;51.566;19.198;2023-01-31T08:22:02;101315.43;;;3.82;90.29
68712;BME280;55690;51.566;19.198;2023-01-31T08:26:10;101315.53;;;4.02;90.53
68712;BME280;55690;51.566;19.198;2023-01-31T08:30:13;101329.91;;;4.01;89.87
68712;BME280;55690;51.566;19.198;2023-01-31T08:34:19;101318.45;;;3.73;91.39
68712;BME280;55690;51.566;19.198;2023-01-31T08:38:26;101329.31;;;3.93;90.56
68712;BME280;55690;51.566;19.198;2023-01-31T08:42:32;101326.60;;;4.18;90.12
68712;BME280;55690;51.566;19.198;2023-01-31T08:46:40;101340.45;;;4.30;90.17
68712;BME280;55690;51.566;19.198;2023-01-31T08:50:44;101335.77;;;4.12;89.41
68712;BME280;55690;51.566;19.198;2023-01-31T08:54:51;101354.82;;;4.29;90.17
68712;BME280;55690;51.566;19.198;2023-01-31T08:58:57;101353.89;;;4.76;88.41
68712;BME280;55690;51.566;19.198;2023-01-31T09:03:47;101355.45;;;5.03;86.70
68712;BME280;55690;51.566;19.198;2023-01-31T09:07:55;101354.14;;;4.70;86.38
68712;BME280;55690;51.566;19.198;2023-01-31T09:11:58;101358.52;;;5.16;85.89
68712;BME280;55690;51.566;19.198;2023-01-31T09:16:07;101361.60;;;5.27;84.25
68712;BME280;55690;51.566;19.198;2023-01-31T09:20:10;101368.13;;;5.21;83.92
68712;BME280;55690;51.566;19.198;2023-01-31T09:24:16;101373.27;;;4.39;85.78
68712;BME280;55690;51.566;19.198;2023-01-31T09:28:23;101383.67;;;4.48;85.18
68712;BME280;55690;51.566;19.198;2023-01-31T09:32:29;101397.02;;;4.27;85.71
68712;BME280;55690;51.566;19.198;2023-01-31T09:36:35;101391.76;;;4.24;86.14
68712;BME280;55690;51.566;19.198;2023-01-31T09:40:41;101392.40;;;4.31;85.96
68712;BME280;55690;51.566;19.198;2023-01-31T09:49:04;101418.36;;;4.32;85.71
68712;BME280;55690;51.566;19.198;2023-01-31T09:53:13;101419.91;;;4.38;86.01
68712;BME280;55690;51.566;19.198;2023-01-31T10:18:30;101398.23;;;4.19;87.83
68712;BME280;55690;51.566;19.198;2023-01-31T10:22:45;101399.27;;;4.38;86.72
68712;BME280;55690;51.566;19.198;2023-01-31T10:26:51;101394.20;;;4.54;83.75
68712;BME280;55690;51.566;19.198;2023-01-31T10:31:01;101405.01;;;4.52;83.18
68712;BME280;55690;51.566;19.198;2023-01-31T10:35:20;101404.31;;;4.47;82.60
68712;BME280;55690;51.566;19.198;2023-01-31T10:39:24;101401.68;;;4.46;83.48
68712;BME280;55690;51.566;19.198;2023-01-31T10:43:53;101392.84;;;4.65;83.37
68712;BME280;55690;51.566;19.198;2023-01-31T10:47:55;101389.66;;;4.78;83.31
68712;BME280;55690;51.566;19.198;2023-01-31T10:52:11;101387.23;;;4.93;81.79
68712;BME280;55690;51.566;19.198;2023-01-31T11:00:29;101391.84;;;5.33;81.95
68712;BME280;55690;51.566;19.198;2023-01-31T11:04:37;101388.05;;;4.95;83.40
68712;BME280;55690;51.566;19.198;2023-01-31T11:08:50;101386.23;;;4.96;82.61
68712;BME280;55690;51.566;19.198;2023-01-31T11:12:59;101376.96;;;4.81;82.45
68712;BME280;55690;51.566;19.198;2023-01-31T11:21:25;101373.20;;;4.85;83.04
68712;BME280;55690;51.566;19.198;2023-01-31T11:25:30;101355.38;;;4.38;84.28
68712;BME280;55690;51.566;19.198;2023-01-31T11:29:41;101366.31;;;4.56;84.04
68712;BME280;55690;51.566;19.198;2023-01-31T11:38:02;101369.16;;;4.75;85.05
68712;BME280;55690;51.566;19.198;2023-01-31T11:46:15;101353.95;;;4.74;85.10
68712;BME280;55690;51.566;19.198;2023-01-31T11:50:29;101346.05;;;4.91;84.14
68712;BME280;55690;51.566;19.198;2023-01-31T11:54:33;101366.60;;;4.49;84.83
68712;BME280;55690;51.566;19.198;2023-01-31T11:58:38;101364.80;;;4.49;84.72
68712;BME280;55690;51.566;19.198;2023-01-31T12:02:41;101352.80;;;4.80;84.64
68712;BME280;55690;51.566;19.198;2023-01-31T12:10:56;101322.89;;;5.09;83.48
68712;BME280;55690;51.566;19.198;2023-01-31T12:15:05;101321.52;;;4.77;83.90
68712;BME280;55690;51.566;19.198;2023-01-31T12:40:38;101302.42;;;4.40;84.69
68712;BME280;55690;51.566;19.198;2023-01-31T12:44:49;101303.24;;;4.85;84.14
68712;BME280;55690;51.566;19.198;2023-01-31T12:49:01;101303.00;;;4.48;84.86
68712;BME280;55690;51.566;19.198;2023-01-31T13:01:44;101303.65;;;4.76;83.85
68712;BME280;55690;51.566;19.198;2023-01-31T13:10:02;101298.80;;;4.84;84.51
68712;BME280;55690;51.566;19.198;2023-01-31T13:14:16;101289.63;;;4.68;84.85
68712;BME280;55690;51.566;19.198;2023-01-31T13:18:20;101263.83;;;4.84;84.18
68712;BME280;55690;51.566;19.198;2023-01-31T13:23:17;101272.34;;;4.95;83.94
68712;BME280;55690;51.566;19.198;2023-01-31T13:26:49;101265.73;;;4.60;85.08
68712;BME280;55690;51.566;19.198;2023-01-31T13:30:56;101284.60;;;4.81;84.39
68712;BME280;55690;51.566;19.198;2023-01-31T13:35:04;101276.21;;;4.88;83.92
68712;BME280;55690;51.566;19.198;2023-01-31T13:39:14;101277.90;;;4.91;84.64
68712;BME280;55690;51.566;19.198;2023-01-31T13:43:19;101277.52;;;4.78;84.59
68712;BME280;55690;51.566;19.198;2023-01-31T13:47:36;101272.42;;;4.72;85.11
68712;BME280;55690;51.566;19.198;2023-01-31T13:51:44;101266.70;;;4.80;85.17
68712;BME280;55690;51.566;19.198;2023-01-31T13:55:47;101254.26;;;4.77;84.98
68712;BME280;55690;51.566;19.198;2023-01-31T13:59:58;101253.59;;;4.72;85.37
68712;BME280;55690;51.566;19.198;2023-01-31T14:12:35;101253.48;;;4.95;84.74
68712;BME280;55690;51.566;19.198;2023-01-31T14:16:41;101236.88;;;5.06;85.34
68712;BME280;55690;51.566;19.198;2023-01-31T14:20:45;101231.89;;;4.97;86.05
68712;BME280;55690;51.566;19.198;2023-01-31T14:33:19;101226.64;;;4.94;86.75
68712;BME280;55690;51.566;19.198;2023-01-31T14:37:32;101217.40;;;4.79;87.70
68712;BME280;55690;51.566;19.198;2023-01-31T14:45:57;101211.20;;;5.19;86.22
68712;BME280;55690;51.566;19.198;2023-01-31T14:58:33;101193.22;;;5.59;85.57
68712;BME280;55690;51.566;19.198;2023-01-31T15:06:53;101181.91;;;4.91;87.80
68712;BME280;55690;51.566;19.198;2023-01-31T15:10:58;101194.55;;;4.69;89.52
68712;BME280;55690;51.566;19.198;2023-01-31T15:15:22;101193.05;;;4.62;90.12
68712;BME280;55690;51.566;19.198;2023-01-31T15:19:18;101190.17;;;4.66;90.46
68712;BME280;55690;51.566;19.198;2023-01-31T15:23:25;101186.05;;;4.78;90.24
68712;BME280;55690;51.566;19.198;2023-01-31T15:27:30;101176.45;;;4.93;89.81
68712;BME280;55690;51.566;19.198;2023-01-31T15:31:41;101176.66;;;4.88;89.96
68712;BME280;55690;51.566;19.198;2023-01-31T15:35:54;101164.95;;;4.89;90.22
68712;BME280;55690;51.566;19.198;2023-01-31T15:40:10;101178.04;;;4.56;91.81
68712;BME280;55690;51.566;19.198;2023-01-31T15:44:20;101177.98;;;4.58;92.74
68712;BME280;55690;51.566;19.198;2023-01-31T15:48:22;101183.17;;;4.62;93.44
68712;BME280;55690;51.566;19.198;2023-01-31T15:52:24;101190.80;;;4.51;94.49
68712;BME280;55690;51.566;19.198;2023-01-31T15:56:29;101202.13;;;4.59;95.23
68712;BME280;55690;51.566;19.198;2023-01-31T16:00:36;101197.17;;;4.71;95.28
68712;BME280;55690;51.566;19.198;2023-01-31T16:04:39;101190.36;;;4.40;97.28
68712;BME280;55690;51.566;19.198;2023-01-31T16:08:40;101187.70;;;4.18;99.16
68712;BME280;55690;51.566;19.198;2023-01-31T16:12:47;101172.45;;;4.19;99.16
68712;BME280;55690;51.566;19.198;2023-01-31T16:16:54;101186.55;;;4.46;99.10
68712;BME280;55690;51.566;19.198;2023-01-31T16:20:56;101178.73;;;4.82;98.69
68712;BME280;55690;51.566;19.198;2023-01-31T16:25:00;101170.67;;;4.40;99.42
68712;BME280;55690;51.566;19.198;2023-01-31T16:29:08;101178.36;;;4.49;99.86
68712;BME280;55690;51.566;19.198;2023-01-31T16:33:17;101172.54;;;4.38;100.00
68712;BME280;55690;51.566;19.198;2023-01-31T16:37:27;101166.08;;;4.21;100.00
68712;BME280;55690;51.566;19.198;2023-01-31T16:41:39;101160.70;;;4.21;100.00
68712;BME280;55690;51.566;19.198;2023-01-31T16:45:56;101162.80;;;4.35;100.00
68712;BME280;55690;51.566;19.198;2023-01-31T16:54:15;101151.45;;;4.28;100.00
68712;BME280;55690;51.566;19.198;2023-01-31T16:58:42;101148.70;;;4.30;100.00
68712;BME280;55690;51.566;19.198;2023-01-31T17:02:38;101145.53;;;4.41;100.00
68712;BME280;55690;51.566;19.198;2023-01-31T17:06:41;101135.27;;;4.50;100.00
68712;BME280;55690;51.566;19.198;2023-01-31T17:10:44;101130.77;;;4.51;100.00
68712;BME280;55690;51.566;19.198;2023-01-31T17:14:48;101133.38;;;4.10;100.00
68712;BME280;55690;51.566;19.198;2023-01-31T17:18:53;101130.41;;;4.38;100.00
68712;BME280;55690;51.566;19.198;2023-01-31T17:22:55;101124.13;;;4.17;100.00
68712;BME280;55690;51.566;19.198;2023-01-31T17:26:56;101118.74;;;4.59;100.00
68712;BME280;55690;51.566;19.198;2023-01-31T17:30:57;101104.48;;;4.57;98.89
68712;BME280;55690;51.566;19.198;2023-01-31T17:34:59;101098.01;;;4.82;97.95
68712;BME280;55690;51.566;19.198;2023-01-31T17:39:00;101087.32;;;4.80;97.53
68712;BME280;55690;51.566;19.198;2023-01-31T17:43:03;101084.86;;;4.55;97.96
68712;BME280;55690;51.566;19.198;2023-01-31T17:47:05;101085.92;;;4.31;99.14
68712;BME280;55690;51.566;19.198;2023-01-31T17:51:06;101074.56;;;4.45;98.87
68712;BME280;55690;51.566;19.198;2023-01-31T17:55:08;101067.50;;;4.22;100.00
68712;BME280;55690;51.566;19.198;2023-01-31T17:59:10;101063.95;;;3.99;100.00
68712;BME280;55690;51.566;19.198;2023-01-31T18:03:21;101052.08;;;4.05;100.00
68712;BME280;55690;51.566;19.198;2023-01-31T18:07:23;101046.70;;;4.05;100.00
68712;BME280;55690;51.566;19.198;2023-01-31T18:11:24;101039.13;;;4.15;100.00
68712;BME280;55690;51.566;19.198;2023-01-31T18:15:26;101036.18;;;4.21;100.00
68712;BME280;55690;51.566;19.198;2023-01-31T18:19:27;101021.41;;;4.31;100.00
68712;BME280;55690;51.566;19.198;2023-01-31T18:23:30;101017.03;;;4.28;100.00
68712;BME280;55690;51.566;19.198;2023-01-31T18:27:32;101004.71;;;4.43;100.00
68712;BME280;55690;51.566;19.198;2023-01-31T18:31:33;101003.58;;;4.08;100.00
68712;BME280;55690;51.566;19.198;2023-01-31T18:35:35;101001.28;;;4.40;100.00
68712;BME280;55690;51.566;19.198;2023-01-31T18:39:36;100985.42;;;4.54;100.00
68712;BME280;55690;51.566;19.198;2023-01-31T18:43:38;100970.22;;;4.53;100.00
68712;BME280;55690;51.566;19.198;2023-01-31T18:47:39;100963.09;;;4.52;100.00
68712;BME280;55690;51.566;19.198;2023-01-31T18:51:41;100957.97;;;4.66;99.97
68712;BME280;55690;51.566;19.198;2023-01-31T18:55:42;100956.51;;;4.59;99.72
68712;BME280;55690;51.566;19.198;2023-01-31T18:59:44;100950.94;;;4.43;100.00
68712;BME280;55690;51.566;19.198;2023-01-31T19:03:47;100945.88;;;4.17;100.00
68712;BME280;55690;51.566;19.198;2023-01-31T19:07:50;100935.85;;;4.00;100.00
68712;BME280;55690;51.566;19.198;2023-01-31T19:11:51;100938.62;;;4.19;100.00
68712;BME280;55690;51.566;19.198;2023-01-31T19:15:58;100924.04;;;4.04;100.00
68712;BME280;55690;51.566;19.198;2023-01-31T19:20:00;100937.34;;;4.07;100.00
68712;BME280;55690;51.566;19.198;2023-01-31T19:24:07;100927.94;;;4.17;100.00
68712;BME280;55690;51.566;19.198;2023-01-31T19:28:10;100916.98;;;4.01;100.00
68712;BME280;55690;51.566;19.198;2023-01-31T19:32:11;100905.49;;;3.98;100.00
68712;BME280;55690;51.566;19.198;2023-01-31T19:36:15;100902.96;;;4.34;100.00
68712;BME280;55690;51.566;19.198;2023-01-31T19:40:17;100892.72;;;4.23;100.00
68712;BME280;55690;51.566;19.198;2023-01-31T19:44:18;100874.59;;;4.08;100.00
68712;BME280;55690;51.566;19.198;2023-01-31T19:48:20;100862.77;;;3.92;100.00
68712;BME280;55690;51.566;19.198;2023-01-31T19:52:23;100845.35;;;3.82;100.00
68712;BME280;55690;51.566;19.198;2023-01-31T19:56:25;100821.84;;;3.87;100.00
68712;BME280;55690;51.566;19.198;2023-01-31T20:00:26;100839.05;;;4.01;100.00
68712;BME280;55690;51.566;19.198;2023-01-31T20:04:27;100836.06;;;4.28;100.00
68712;BME280;55690;51.566;19.198;2023-01-31T20:08:32;100832.50;;;4.27;100.00
68712;BME280;55690;51.566;19.198;2023-01-31T20:12:35;100835.63;;;3.98;100.00
68712;BME280;55690;51.566;19.198;2023-01-31T20:16:36;100841.79;;;4.20;100.00
68712;BME280;55690;51.566;19.198;2023-01-31T20:20:38;100815.02;;;3.98;100.00
68712;BME280;55690;51.566;19.198;2023-01-31T20:24:39;100834.59;;;4.40;100.00
68712;BME280;55690;51.566;19.198;2023-01-31T20:28:41;100827.30;;;4.04;100.00
68712;BME280;55690;51.566;19.198;2023-01-31T20:32:44;100830.41;;;3.95;100.00
68712;BME280;55690;51.566;19.198;2023-01-31T20:36:46;100819.55;;;4.17;100.00
68712;BME280;55690;51.566;19.198;2023-01-31T20:40:51;100798.02;;;3.98;100.00
68712;BME280;55690;51.566;19.198;2023-01-31T20:44:53;100793.20;;;4.25;100.00
68712;BME280;55690;51.566;19.198;2023-01-31T20:48:55;100782.38;;;4.26;100.00
68712;BME280;55690;51.566;19.198;2023-01-31T20:52:58;100764.98;;;4.52;100.00
68712;BME280;55690;51.566;19.198;2023-01-31T20:56:59;100784.89;;;4.48;100.00
68712;BME280;55690;51.566;19.198;2023-01-31T21:01:01;100792.69;;;4.17;100.00
68712;BME280;55690;51.566;19.198;2023-01-31T21:05:03;100798.22;;;4.32;100.00
68712;BME280;55690;51.566;19.198;2023-01-31T21:09:05;100793.83;;;4.49;100.00
68712;BME280;55690;51.566;19.198;2023-01-31T21:13:06;100793.31;;;4.03;100.00
68712;BME280;55690;51.566;19.198;2023-01-31T21:17:09;100798.22;;;4.32;100.00
68712;BME280;55690;51.566;19.198;2023-01-31T21:21:19;100790.48;;;4.44;100.00
68712;BME280;55690;51.566;19.198;2023-01-31T21:25:23;100772.23;;;4.69;100.00
68712;BME280;55690;51.566;19.198;2023-01-31T21:29:28;100769.70;;;4.47;100.00
68712;BME280;55690;51.566;19.198;2023-01-31T21:33:34;100763.88;;;4.56;100.00
68712;BME280;55690;51.566;19.198;2023-01-31T21:37:41;100755.17;;;4.51;100.00
68712;BME280;55690;51.566;19.198;2023-01-31T21:41:46;100756.24;;;4.66;100.00
68712;BME280;55690;51.566;19.198;2023-01-31T21:46:00;100737.57;;;4.80;100.00
68712;BME280;55690;51.566;19.198;2023-01-31T21:50:01;100726.20;;;4.75;100.00
68712;BME280;55690;51.566;19.198;2023-01-31T21:54:05;100725.97;;;4.97;100.00
68712;BME280;55690;51.566;19.198;2023-01-31T21:58:11;100722.64;;;4.92;100.00
68712;BME280;55690;51.566;19.198;2023-01-31T22:02:17;100714.27;;;5.15;100.00
68712;BME280;55690;51.566;19.198;2023-01-31T22:06:29;100703.25;;;5.20;100.00
68712;BME280;55690;51.566;19.198;2023-01-31T22:10:34;100698.42;;;4.75;100.00
68712;BME280;55690;51.566;19.198;2023-01-31T22:14:36;100694.83;;;5.26;100.00
68712;BME280;55690;51.566;19.198;2023-01-31T22:18:43;100692.65;;;5.17;100.00
68712;BME280;55690;51.566;19.198;2023-01-31T22:22:48;100669.61;;;5.11;100.00
68712;BME280;55690;51.566;19.198;2023-01-31T22:26:54;100671.47;;;5.26;100.00
68712;BME280;55690;51.566;19.198;2023-01-31T22:31:01;100670.09;;;5.52;100.00
68712;BME280;55690;51.566;19.198;2023-01-31T22:35:08;100664.07;;;5.14;100.00
68712;BME280;55690;51.566;19.198;2023-01-31T22:39:13;100670.20;;;5.33;100.00
68712;BME280;55690;51.566;19.198;2023-01-31T22:43:19;100653.91;;;6.17;100.00
68712;BME280;55690;51.566;19.198;2023-01-31T22:47:25;100659.55;;;5.15;100.00
68712;BME280;55690;51.566;19.198;2023-01-31T22:51:31;100655.99;;;6.12;100.00
68712;BME280;55690;51.566;19.198;2023-01-31T22:55:39;100642.01;;;5.89;100.00
68712;BME280;55690;51.566;19.198;2023-01-31T22:59:44;100642.19;;;6.02;100.00
68712;BME280;55690;51.566;19.198;2023-01-31T23:03:55;100637.09;;;6.43;100.00
68712;BME280;55690;51.566;19.198;2023-01-31T23:07:57;100622.50;;;6.31;100.00
68712;BME280;55690;51.566;19.198;2023-01-31T23:12:03;100629.63;;;6.32;100.00
68712;BME280;55690;51.566;19.198;2023-01-31T23:16:13;100627.55;;;6.22;100.00
68712;BME280;55690;51.566;19.198;2023-01-31T23:20:17;100643.23;;;5.51;100.00
68712;BME280;55690;51.566;19.198;2023-01-31T23:24:21;100653.14;;;5.17;100.00
68712;BME280;55690;51.566;19.198;2023-01-31T23:28:27;100714.38;;;4.60;100.00
68712;BME280;55690;51.566;19.198;2023-01-31T23:32:33;100714.57;;;4.75;100.00
68712;BME280;55690;51.566;19.198;2023-01-31T23:36:39;100695.94;;;4.53;100.00
68712;BME280;55690;51.566;19.198;2023-01-31T23:40:53;100667.37;;;4.33;100.00
68712;BME280;55690;51.566;19.198;2023-01-31T23:44:54;100661.13;;;4.50;100.00